Time;durP1;ratioP1;P1;durP2;ratioP2;P2;SDS_P1;SDS_P2;PMS_P1;PMS_P2;Temp;Humidity;BMP_temperature;BMP_pressure;BME280_temperature;BME280_humidity;BME280_pressure;Samples;Min_cycle;Max_cycle;Signal;HPM_P1;HPM_P2
2023/04/14 00:00:05;;;;;;;30.55;14.48;;;;;;;8.24;77.33;97514.31;5091300;28;20049;-70
2023/04/14 00:02:34;;;;;;;30.60;14.95;;;;;;;8.27;77.04;97510.97;5091772;28;20024;-70
2023/04/14 00:04:59;;;;;;;32.85;15.32;;;;;;;8.28;76.94;97507.13;5090624;28;20024;-70
2023/04/14 00:07:25;;;;;;;31.60;15.45;;;;;;;8.27;77.56;97512.88;5091001;28;20016;-69
2023/04/14 00:09:50;;;;;;;30.02;14.20;;;;;;;8.27;77.50;97501.97;5091364;28;20039;-70
2023/04/14 00:12:16;;;;;;;31.55;15.10;;;;;;;8.30;77.08;97504.91;5091072;28;20028;-70
2023/04/14 00:14:42;;;;;;;30.10;15.15;;;;;;;8.34;77.35;97507.84;5072688;28;20028;-70
2023/04/14 00:17:08;;;;;;;34.00;16.60;;;;;;;8.38;77.22;97508.00;5091541;28;20016;-70
2023/04/14 00:19:33;;;;;;;34.03;16.48;;;;;;;8.39;77.67;97507.72;5070535;28;20499;-70
2023/04/14 00:21:58;;;;;;;33.47;17.35;;;;;;;8.41;77.34;97513.69;5072653;28;20097;-70
2023/04/14 00:24:24;;;;;;;37.00;17.55;;;;;;;8.43;77.53;97496.97;5090765;28;20058;-70
2023/04/14 00:26:49;;;;;;;31.90;15.57;;;;;;;8.43;77.23;97497.81;5091205;28;20024;-69
2023/04/14 00:29:15;;;;;;;36.92;16.67;;;;;;;8.39;77.19;97491.34;5091303;28;20096;-70
2023/04/14 00:31:40;;;;;;;30.38;15.60;;;;;;;8.39;77.75;97482.31;5091116;28;20031;-69
2023/04/14 00:34:05;;;;;;;32.78;15.63;;;;;;;8.37;77.34;97490.00;5090690;28;20028;-70
2023/04/14 00:36:31;;;;;;;34.72;16.92;;;;;;;8.37;77.71;97482.63;5090698;28;20113;-70
2023/04/14 00:38:56;;;;;;;36.38;17.00;;;;;;;8.35;77.18;97477.47;5090378;28;20054;-70
2023/04/14 00:41:23;;;;;;;36.75;16.63;;;;;;;8.39;77.23;97474.13;5091030;28;20032;-70
2023/04/14 00:43:53;;;;;;;33.30;16.05;;;;;;;8.40;77.37;97470.28;5090591;28;20052;-69
2023/04/14 00:46:18;;;;;;;36.17;15.82;;;;;;;8.38;77.33;97464.31;5090584;28;20492;-70
2023/04/14 00:48:44;;;;;;;32.85;15.82;;;;;;;8.38;77.33;97467.03;5091086;28;20028;-70
2023/04/14 00:51:10;;;;;;;29.65;14.18;;;;;;;8.35;77.11;97465.72;5090738;28;20023;-70
2023/04/14 00:53:36;;;;;;;29.98;14.73;;;;;;;8.35;77.42;97463.00;5090187;28;20032;-70
2023/04/14 00:56:02;;;;;;;24.23;11.95;;;;;;;8.37;77.66;97465.41;5090613;28;20456;-70
2023/04/14 00:58:27;;;;;;;31.00;15.65;;;;;;;8.30;77.31;97466.66;5090504;28;20028;-69
2023/04/14 01:00:54;;;;;;;34.38;15.30;;;;;;;8.29;77.23;97467.78;5090980;28;20024;-70
2023/04/14 01:03:21;;;;;;;34.30;14.77;;;;;;;8.29;77.59;97464.22;5090794;28;20069;-70
2023/04/14 01:05:46;;;;;;;34.13;15.63;;;;;;;8.31;77.03;97462.81;5090822;28;20457;-70
2023/04/14 01:08:12;;;;;;;32.10;15.02;;;;;;;8.29;77.00;97467.78;5090669;28;20106;-70
2023/04/14 01:10:46;;;;;;;30.30;14.15;;;;;;;8.27;76.99;97464.53;5090519;28;20032;-70
2023/04/14 01:13:32;;;;;;;28.42;13.57;;;;;;;8.29;77.37;97464.22;5090679;28;20496;-70
2023/04/14 01:16:11;;;;;;;26.15;12.95;;;;;;;8.25;77.36;97466.78;5090618;28;20024;-70
2023/04/14 01:18:57;;;;;;;26.20;13.98;;;;;;;8.23;77.23;97469.00;5090385;28;20028;-70
2023/04/14 01:21:30;;;;;;;32.90;14.85;;;;;;;8.23;77.63;97477.19;5090559;28;20411;-70
2023/04/14 01:24:23;;;;;;;28.95;13.35;;;;;;;8.19;77.09;97470.72;5090364;28;20032;-70
2023/04/14 01:27:10;;;;;;;30.15;13.98;;;;;;;8.15;77.47;97469.72;5089873;28;20028;-69
2023/04/14 01:29:46;;;;;;;29.58;14.25;;;;;;;8.15;77.25;97467.78;5089530;28;20027;-70
2023/04/14 01:32:17;;;;;;;30.55;14.13;;;;;;;8.14;77.16;97468.09;5072302;28;20075;-70
2023/04/14 01:35:02;;;;;;;31.95;14.73;;;;;;;8.14;77.61;97468.09;5089959;28;20051;-69
2023/04/14 01:37:33;;;;;;;30.88;14.50;;;;;;;8.17;77.49;97464.75;5090246;28;20095;-70
2023/04/14 01:40:04;;;;;;;31.15;14.80;;;;;;;8.17;77.30;97456.56;5093255;28;20548;-70
2023/04/14 01:42:35;;;;;;;31.60;15.32;;;;;;;8.19;77.37;97466.03;5093709;28;20568;-70
2023/04/14 01:45:22;;;;;;;32.45;14.95;;;;;;;8.23;77.48;97466.25;5093189;28;20050;-70
2023/04/14 01:47:50;;;;;;;29.83;14.43;;;;;;;8.26;77.51;97457.47;5091328;28;20040;-70
2023/04/14 01:50:17;;;;;;;30.42;15.02;;;;;;;8.26;77.88;97460.19;5089611;28;20024;-70
2023/04/14 01:52:50;;;;;;;32.20;14.57;;;;;;;8.28;77.95;97457.97;5090285;28;20020;-70
2023/04/14 01:55:18;;;;;;;29.75;14.32;;;;;;;8.25;77.51;97450.38;5090013;28;20054;-70
2023/04/14 01:57:47;;;;;;;32.40;14.70;;;;;;;8.22;78.16;97447.44;5071597;28;20487;-70
2023/04/14 02:00:15;;;;;;;31.90;15.45;;;;;;;8.17;77.64;97440.16;5089534;28;20051;-70
2023/04/14 02:02:42;;;;;;;32.08;16.55;;;;;;;8.16;78.13;97442.06;5089671;28;20028;-70
2023/04/14 02:05:09;;;;;;;36.83;16.50;;;;;;;8.14;77.90;97435.31;5089850;28;20032;-70
2023/04/14 02:07:35;;;;;;;33.97;16.42;;;;;;;8.08;78.64;97429.16;5089783;28;20035;-70
2023/04/14 02:10:04;;;;;;;32.90;16.00;;;;;;;8.05;78.13;97432.50;5090092;28;20020;-70
2023/04/14 02:12:30;;;;;;;34.92;16.25;;;;;;;8.04;78.55;97422.69;5089716;28;20032;-71
2023/04/14 02:14:58;;;;;;;36.08;17.20;;;;;;;8.04;79.04;97426.22;5089517;28;20377;-71
2023/04/14 02:17:24;;;;;;;37.65;17.38;;;;;;;8.02;78.62;97424.91;5089687;28;20799;-70
2023/04/14 02:19:52;;;;;;;37.42;17.30;;;;;;;8.01;78.24;97420.56;5089818;28;20527;-70
2023/04/14 02:22:18;;;;;;;41.72;19.23;;;;;;;8.02;78.41;97417.50;5089624;28;20028;-70
2023/04/14 02:24:45;;;;;;;40.15;18.75;;;;;;;8.04;78.80;97419.97;5089667;28;20029;-70
2023/04/14 02:27:16;;;;;;;42.40;19.38;;;;;;;8.04;78.87;97415.28;5089767;28;20031;-69
2023/04/14 02:29:47;;;;;;;40.83;18.30;;;;;;;8.03;78.34;97413.66;5089737;28;20032;-70
2023/04/14 02:32:20;;;;;;;39.85;18.13;;;;;;;8.07;79.51;97419.34;5089066;28;20035;-70
2023/04/14 02:34:59;;;;;;;42.60;19.45;;;;;;;8.09;78.64;97419.03;5089493;28;20513;-70
2023/04/14 02:37:41;;;;;;;42.60;19.08;;;;;;;8.11;79.30;97416.81;5089607;28;20024;-70
2023/04/14 02:40:13;;;;;;;39.22;18.67;;;;;;;8.12;79.31;97411.06;5071803;28;20050;-71
2023/04/14 02:42:42;;;;;;;52.15;22.60;;;;;;;8.09;79.04;97410.84;5093815;28;20492;-70
2023/04/14 02:45:13;;;;;;;52.55;23.60;;;;;;;8.08;79.23;97403.75;5093192;28;20101;-70
2023/04/14 02:47:45;;;;;;;51.38;23.00;;;;;;;8.08;79.20;97401.03;5093255;28;20043;-70
2023/04/14 02:50:14;;;;;;;51.47;24.52;;;;;;;8.09;79.12;97400.75;5093164;28;20030;-70
2023/04/14 02:52:42;;;;;;;54.53;23.63;;;;;;;8.10;79.24;97399.63;5093123;28;20032;-70
2023/04/14 02:55:09;;;;;;;51.83;23.20;;;;;;;8.14;78.72;97399.81;5092859;28;20523;-70
2023/04/14 02:57:36;;;;;;;50.67;23.27;;;;;;;8.16;79.00;97392.91;5092987;28;20127;-71
2023/04/14 03:00:02;;;;;;;56.10;25.17;;;;;;;8.19;79.47;97399.69;5092962;28;20028;-70
2023/04/14 03:02:28;;;;;;;51.63;24.20;;;;;;;8.19;79.14;97402.44;5093286;28;20571;-70
2023/04/14 03:04:54;;;;;;;54.17;25.33;;;;;;;8.20;79.07;97402.13;5093138;28;20111;-70
2023/04/14 03:07:20;;;;;;;55.38;25.10;;;;;;;8.27;78.96;97404.44;5092828;28;20404;-71
2023/04/14 03:09:50;;;;;;;51.70;23.27;;;;;;;8.33;78.77;97395.03;5090537;28;20115;-70
2023/04/14 03:12:17;;;;;;;54.63;25.02;;;;;;;8.36;79.03;97390.84;5092665;28;20036;-71
2023/04/14 03:14:43;;;;;;;50.08;25.77;;;;;;;8.42;78.48;97399.72;5092542;28;20476;-70
2023/04/14 03:17:13;;;;;;;60.97;30.20;;;;;;;8.43;79.03;97388.50;5092197;28;20074;-71
2023/04/14 03:19:40;;;;;;;58.92;28.88;;;;;;;8.46;78.72;97398.00;5092759;28;20124;-71
2023/04/14 03:22:07;;;;;;;57.25;28.88;;;;;;;8.51;78.99;97394.41;5092793;28;20027;-70
2023/04/14 03:24:34;;;;;;;56.92;27.95;;;;;;;8.55;79.03;97403.59;5092637;28;20031;-70
2023/04/14 03:27:04;;;;;;;60.55;29.65;;;;;;;8.59;78.98;97396.38;5092525;28;20417;-70
2023/04/14 03:29:35;;;;;;;56.75;27.52;;;;;;;8.62;79.22;97398.47;5092878;28;20020;-70
2023/04/14 03:32:05;;;;;;;51.97;25.35;;;;;;;8.61;79.15;97392.22;5092790;28;20099;-70
2023/04/14 03:34:34;;;;;;;49.97;24.08;;;;;;;8.58;78.30;97387.38;5092560;28;20032;-70
2023/04/14 03:37:01;;;;;;;49.05;23.73;;;;;;;8.60;78.80;97384.31;5092605;28;20028;-70
2023/04/14 03:39:29;;;;;;;50.60;24.33;;;;;;;8.57;79.07;97387.66;5073997;28;20039;-70
2023/04/14 03:41:56;;;;;;;50.67;24.48;;;;;;;8.56;78.68;97381.41;5092327;28;20031;-70
2023/04/14 03:44:25;;;;;;;51.13;24.67;;;;;;;8.59;79.00;97379.97;5091998;28;20036;-71
2023/04/14 03:46:52;;;;;;;54.40;26.50;;;;;;;8.63;78.71;97381.78;5092532;28;20035;-70
2023/04/14 03:49:19;;;;;;;56.38;27.35;;;;;;;8.66;79.00;97377.63;5091773;28;20070;-70
2023/04/14 03:51:48;;;;;;;55.45;27.50;;;;;;;8.70;78.78;97375.88;5091945;28;20024;-71
2023/04/14 03:54:16;;;;;;;57.28;29.92;;;;;;;8.75;78.90;97375.75;5091636;28;20441;-70
2023/04/14 03:56:45;;;;;;;58.22;29.65;;;;;;;8.78;78.94;97372.41;5092102;28;20028;-70
2023/04/14 03:59:14;;;;;;;48.17;26.33;;;;;;;8.78;78.67;97372.41;5092039;28;20111;-70
2023/04/14 04:01:40;;;;;;;52.90;25.75;;;;;;;8.78;78.71;97369.69;5091998;28;20032;-71
2023/04/14 04:04:06;;;;;;;56.40;27.92;;;;;;;8.80;79.12;97366.63;5091680;28;20495;-70
2023/04/14 04:06:33;;;;;;;54.13;28.00;;;;;;;8.80;78.79;97369.34;5092098;28;20473;-71
2023/04/14 04:09:03;;;;;;;51.03;27.60;;;;;;;8.79;78.27;97370.47;5091540;28;20032;-70
2023/04/14 04:11:30;;;;;;;53.65;27.38;;;;;;;8.82;78.56;97369.06;5091656;28;20024;-70
2023/04/14 04:13:57;;;;;;;45.70;25.33;;;;;;;8.83;78.76;97376.13;5091527;28;20016;-70
2023/04/14 04:16:26;;;;;;;48.13;25.40;;;;;;;8.83;78.29;97370.66;5091648;28;20032;-70
2023/04/14 04:18:52;;;;;;;45.70;24.83;;;;;;;8.82;78.95;97363.59;5091234;28;20024;-70
2023/04/14 04:21:19;;;;;;;41.97;24.45;;;;;;;8.82;78.60;97366.31;5073000;28;20039;-70
2023/04/14 04:23:52;;;;;;;42.55;23.42;;;;;;;8.81;78.91;97357.28;5091297;28;20039;-70
2023/04/14 04:26:18;;;;;;;46.30;26.30;;;;;;;8.85;78.07;97352.81;5091787;28;20024;-71
2023/04/14 04:28:44;;;;;;;42.28;23.90;;;;;;;8.89;78.97;97355.75;5091255;28;20039;-70
2023/04/14 04:31:10;;;;;;;48.20;27.02;;;;;;;8.92;79.03;97349.66;5091215;28;20547;-70
2023/04/14 04:33:36;;;;;;;49.17;28.15;;;;;;;8.96;79.02;97339.72;5073280;28;20035;-70
2023/04/14 04:36:05;;;;;;;51.80;28.23;;;;;;;8.98;78.77;97347.59;5091192;28;20116;-70
2023/04/14 04:38:30;;;;;;;47.95;27.33;;;;;;;8.99;78.84;97360.16;5090691;28;20028;-70
2023/04/14 04:40:56;;;;;;;45.40;25.23;;;;;;;9.02;79.01;97362.25;5091081;28;20077;-70
2023/04/14 04:43:21;;;;;;;41.00;24.63;;;;;;;9.03;78.48;97377.56;5090697;28;20054;-70
2023/04/14 04:46:09;;;;;;;39.72;25.05;;;;;;;9.06;78.69;97372.25;5090840;28;20137;-71
2023/04/14 04:48:34;;;;;;;42.35;24.77;;;;;;;9.09;78.93;97374.38;5072587;28;20111;-70
2023/04/14 04:50:59;;;;;;;41.50;23.83;;;;;;;9.11;78.73;97368.59;5090891;28;20135;-71
2023/04/14 04:53:25;;;;;;;37.53;23.48;;;;;;;9.15;78.75;97366.03;5090651;28;20027;-70
2023/04/14 04:55:50;;;;;;;38.58;22.58;;;;;;;9.15;78.73;97366.84;5091264;28;20028;-70
2023/04/14 04:58:15;;;;;;;41.80;25.20;;;;;;;9.12;79.02;97359.28;5091164;28;20030;-70
2023/04/14 05:00:42;;;;;;;40.40;22.70;;;;;;;9.14;78.36;97350.72;5090613;28;20464;-70
2023/04/14 05:03:07;;;;;;;40.40;23.88;;;;;;;9.15;78.78;97347.69;5090251;28;20026;-70
2023/04/14 05:05:36;;;;;;;38.53;23.63;;;;;;;9.16;78.78;97345.75;5090698;28;20059;-70
2023/04/14 05:08:02;;;;;;;39.67;23.98;;;;;;;9.21;78.40;97353.84;5090901;28;20052;-71
2023/04/14 05:10:27;;;;;;;35.85;22.88;;;;;;;9.22;77.88;97339.03;5090561;28;20067;-70
2023/04/14 05:12:53;;;;;;;34.85;22.35;;;;;;;9.24;78.18;97334.84;5090991;28;20042;-70
2023/04/14 05:15:18;;;;;;;35.30;21.33;;;;;;;9.27;78.43;97333.44;5090291;28;20563;-70
2023/04/14 05:17:43;;;;;;;36.47;23.23;;;;;;;9.28;79.03;97334.22;5090843;28;20043;-70
2023/04/14 05:20:10;;;;;;;38.30;23.88;;;;;;;9.28;78.62;97326.00;5090069;28;20063;-70
2023/04/14 05:22:35;;;;;;;39.78;23.77;;;;;;;9.28;78.40;97324.09;5090536;28;20035;-71
2023/04/14 05:25:00;;;;;;;38.85;23.92;;;;;;;9.30;78.78;97321.03;5090239;28;20385;-70
2023/04/14 05:27:26;;;;;;;37.83;23.63;;;;;;;9.32;78.17;97322.34;5090627;28;20031;-70
2023/04/14 05:29:51;;;;;;;41.63;23.67;;;;;;;9.34;78.66;97316.53;5090432;28;20408;-70
2023/04/14 05:32:17;;;;;;;39.35;23.65;;;;;;;9.36;78.73;97306.09;5090529;28;20051;-70
2023/04/14 05:34:42;;;;;;;37.70;23.50;;;;;;;9.37;78.38;97308.50;5090044;28;20024;-71
2023/04/14 05:37:08;;;;;;;38.60;24.38;;;;;;;9.37;78.64;97296.75;5089084;28;20043;-71
2023/04/14 05:39:34;;;;;;;38.15;24.08;;;;;;;9.37;77.89;97300.28;5090103;28;20061;-71
2023/04/14 05:42:00;;;;;;;36.42;23.40;;;;;;;9.35;77.82;97302.56;5071779;28;20031;-71
2023/04/14 05:44:25;;;;;;;34.15;21.90;;;;;;;9.35;78.20;97313.50;5071854;28;20071;-71
2023/04/14 05:46:51;;;;;;;34.67;22.45;;;;;;;9.35;78.50;97320.91;5090364;28;20107;-70
2023/04/14 05:49:16;;;;;;;33.15;21.27;;;;;;;9.33;78.14;97307.53;5090206;28;20035;-71
2023/04/14 05:51:42;;;;;;;32.00;20.85;;;;;;;9.32;78.29;97305.09;5089518;28;20024;-71
2023/04/14 05:54:07;;;;;;;35.25;21.75;;;;;;;9.32;78.20;97294.97;5055299;28;20239;-70
2023/04/14 05:56:32;;;;;;;31.60;20.40;;;;;;;9.34;77.95;97300.94;5090332;28;20078;-71
2023/04/14 05:58:58;;;;;;;34.72;21.73;;;;;;;9.36;78.06;97297.88;5090001;28;20039;-71
2023/04/14 06:01:23;;;;;;;35.65;22.48;;;;;;;9.34;77.99;97291.91;5089103;28;20511;-71
2023/04/14 06:03:48;;;;;;;37.15;21.67;;;;;;;9.36;78.05;97295.97;5084992;28;20024;-70
2023/04/14 06:06:14;;;;;;;31.27;19.85;;;;;;;9.38;78.15;97293.69;5089457;28;20024;-70
2023/04/14 06:08:39;;;;;;;34.15;21.30;;;;;;;9.43;78.34;97291.94;5089882;28;20574;-71
2023/04/14 06:11:05;;;;;;;31.75;21.58;;;;;;;9.47;78.59;97277.31;5089585;28;20069;-70
2023/04/14 06:13:30;;;;;;;33.72;20.73;;;;;;;9.51;77.93;97275.56;5089945;28;20028;-71
2023/04/14 06:15:57;;;;;;;34.10;21.20;;;;;;;9.55;78.14;97272.19;5093772;28;20024;-71
2023/04/14 06:18:22;;;;;;;29.38;18.90;;;;;;;9.58;78.54;97268.81;5075283;28;20032;-71
2023/04/14 06:20:48;;;;;;;31.05;19.85;;;;;;;9.60;77.66;97275.56;5093455;28;20028;-71
2023/04/14 06:23:13;;;;;;;29.02;19.77;;;;;;;9.62;77.46;97270.59;5093363;28;20370;-71
2023/04/14 06:26:07;;;;;;;28.23;19.00;;;;;;;9.62;77.44;97269.75;5093478;28;20020;-72
2023/04/14 06:28:32;;;;;;;33.45;20.30;;;;;;;9.65;77.62;97275.44;5090059;28;20119;-71
2023/04/14 06:30:59;;;;;;;29.77;18.88;;;;;;;9.62;77.99;97284.28;5088684;28;20153;-70
2023/04/14 06:33:24;;;;;;;31.15;20.10;;;;;;;9.60;77.64;97278.31;5069216;28;20032;-70
2023/04/14 06:35:50;;;;;;;30.77;19.67;;;;;;;9.59;78.00;97273.97;5075534;28;20016;-70
2023/04/14 06:38:15;;;;;;;30.65;19.75;;;;;;;9.62;77.77;97273.31;5093351;28;20459;-70
2023/04/14 06:40:40;;;;;;;30.73;21.08;;;;;;;9.66;77.98;97271.56;5092962;28;20024;-70
2023/04/14 06:43:09;;;;;;;30.40;20.70;;;;;;;9.70;78.42;97271.72;5083553;28;20104;-71
2023/04/14 06:45:35;;;;;;;28.45;19.40;;;;;;;9.74;77.67;97264.47;5048545;28;20072;-70
2023/04/14 06:48:01;;;;;;;30.73;19.50;;;;;;;9.81;77.79;97266.72;5052211;28;20052;-70
2023/04/14 06:50:26;;;;;;;33.25;20.15;;;;;;;9.88;77.94;97252.59;5051291;28;20036;-70
2023/04/14 06:52:53;;;;;;;30.42;19.80;;;;;;;9.97;77.75;97259.66;5059196;28;20040;-71
2023/04/14 06:55:20;;;;;;;34.25;21.75;;;;;;;10.08;77.71;97251.13;5069721;28;20032;-72
2023/04/14 06:57:45;;;;;;;34.55;20.83;;;;;;;10.13;78.58;97253.72;5068114;28;20035;-71
2023/04/14 07:00:12;;;;;;;31.75;20.77;;;;;;;10.20;77.85;97247.75;5056473;28;20392;-71
2023/04/14 07:02:37;;;;;;;31.88;21.80;;;;;;;10.21;78.25;97239.19;5067361;28;20479;-71
2023/04/14 07:05:02;;;;;;;31.30;19.73;;;;;;;10.27;78.14;97237.09;5067655;28;20119;-71
2023/04/14 07:07:28;;;;;;;31.27;18.70;;;;;;;10.30;78.05;97235.63;5072147;28;20127;-72
2023/04/14 07:09:53;;;;;;;30.10;19.83;;;;;;;10.32;78.04;97230.63;5052352;28;20115;-72
2023/04/14 07:12:19;;;;;;;30.98;20.40;;;;;;;10.35;77.33;97232.72;5059894;28;20082;-72
2023/04/14 07:14:50;;;;;;;31.13;20.38;;;;;;;10.41;77.48;97223.25;5064368;28;20033;-71
2023/04/14 07:17:17;;;;;;;30.73;20.52;;;;;;;10.47;77.58;97229.34;5065776;28;20017;-70
2023/04/14 07:19:43;;;;;;;30.80;20.20;;;;;;;10.54;77.71;97224.16;5057260;28;20048;-71
2023/04/14 07:22:08;;;;;;;29.10;19.30;;;;;;;10.62;77.16;97230.75;5066349;28;20481;-72
2023/04/14 07:24:33;;;;;;;30.23;19.00;;;;;;;10.65;77.44;97227.38;5056643;28;20021;-72
2023/04/14 07:26:59;;;;;;;27.75;18.45;;;;;;;10.69;77.43;97231.88;5057734;28;20036;-70
2023/04/14 07:29:26;;;;;;;26.95;18.38;;;;;;;10.66;76.61;97245.44;5062157;28;20074;-70
2023/04/14 07:31:51;;;;;;;28.40;18.77;;;;;;;10.66;77.38;97243.50;5063142;28;20048;-71
2023/04/14 07:34:18;;;;;;;30.60;19.58;;;;;;;10.67;77.26;97250.59;5060226;28;20043;-70
2023/04/14 07:36:44;;;;;;;27.85;18.27;;;;;;;10.74;77.35;97252.03;5049826;28;20075;-71
2023/04/14 07:39:09;;;;;;;27.15;18.00;;;;;;;10.74;76.73;97255.56;5063364;28;20036;-71
2023/04/14 07:41:35;;;;;;;26.83;17.42;;;;;;;10.76;76.93;97247.81;5071092;28;20063;-71
2023/04/14 07:44:00;;;;;;;26.50;17.73;;;;;;;10.76;77.05;97258.00;5062606;28;20132;-71
2023/04/14 07:46:26;;;;;;;27.38;18.67;;;;;;;10.78;76.79;97256.53;5071546;28;20037;-71
2023/04/14 07:48:52;;;;;;;29.48;18.75;;;;;;;10.83;76.58;97248.13;5073917;28;20023;-72
2023/04/14 07:51:17;;;;;;;31.80;19.33;;;;;;;10.87;76.53;97245.53;5072582;28;20103;-70
2023/04/14 07:53:43;;;;;;;33.05;21.70;;;;;;;10.94;76.69;97247.78;5081413;28;20059;-70
2023/04/14 07:56:10;;;;;;;33.53;21.85;;;;;;;11.00;76.03;97247.25;5085808;28;20700;-70
2023/04/14 07:58:35;;;;;;;35.13;21.80;;;;;;;11.07;76.80;97251.44;5080334;28;20020;-70
2023/04/14 08:01:02;;;;;;;31.38;20.63;;;;;;;11.12;76.43;97252.03;5082833;28;20023;-71
2023/04/14 08:03:28;;;;;;;33.33;20.58;;;;;;;11.18;76.64;97255.44;5088917;28;20138;-70
2023/04/14 08:05:53;;;;;;;31.35;20.15;;;;;;;11.18;76.43;97258.19;5091138;28;20034;-70
2023/04/14 08:08:18;;;;;;;30.80;18.98;;;;;;;11.23;76.33;97254.44;5086927;28;20111;-71
2023/04/14 08:10:44;;;;;;;29.42;18.52;;;;;;;11.24;76.06;97256.03;5075876;28;20476;-73
2023/04/14 08:13:09;;;;;;;28.63;19.33;;;;;;;11.31;75.64;97250.84;5081662;28;20027;-71
2023/04/14 08:15:35;;;;;;;27.48;18.30;;;;;;;11.36;76.11;97247.91;5074288;28;20556;-72
2023/04/14 08:18:01;;;;;;;28.15;18.67;;;;;;;11.38;76.16;97248.38;5077987;28;20020;-72
2023/04/14 08:20:26;;;;;;;28.25;18.73;;;;;;;11.37;75.92;97246.78;5090339;28;20396;-73
2023/04/14 08:22:52;;;;;;;27.20;17.25;;;;;;;11.42;75.39;97238.31;5086273;28;20027;-74
2023/04/14 08:25:17;;;;;;;28.63;18.13;;;;;;;11.47;75.85;97240.09;5082234;28;20032;-74
2023/04/14 08:27:43;;;;;;;28.02;17.02;;;;;;;11.52;75.56;97239.91;5080409;28;20103;-75
2023/04/14 08:30:09;;;;;;;27.42;18.38;;;;;;;11.49;74.76;97234.25;5078967;28;20040;-76
2023/04/14 08:32:35;;;;;;;32.05;19.30;;;;;;;11.46;75.44;97238.47;5076396;28;20066;-83
2023/04/14 08:35:00;;;;;;;29.75;19.08;;;;;;;11.46;74.42;97228.28;5082660;28;20455;-75
2023/04/14 08:37:26;;;;;;;29.83;19.73;;;;;;;11.45;74.75;97239.63;5079132;28;20554;-75
2023/04/14 08:39:51;;;;;;;33.17;19.05;;;;;;;11.43;75.21;97233.66;5077342;28;20037;-74
2023/04/14 08:42:19;;;;;;;31.77;20.23;;;;;;;11.51;75.09;97234.72;5070462;28;20078;-74
2023/04/14 08:44:46;;;;;;;32.63;22.60;;;;;;;11.54;74.52;97234.88;5087325;28;20051;-74
2023/04/14 08:47:13;;;;;;;36.42;23.38;;;;;;;11.57;74.46;97239.72;5088904;28;20483;-77
2023/04/14 08:49:48;;;;;;;39.95;24.27;;;;;;;11.58;74.49;97246.00;5086934;28;20165;-74
2023/04/14 08:52:17;;;;;;;34.30;22.38;;;;;;;11.60;74.29;97230.00;5088115;28;20507;-75
2023/04/14 08:54:45;;;;;;;35.85;21.83;;;;;;;11.59;74.58;97229.22;5088630;28;20134;-73
2023/04/14 08:57:12;;;;;;;34.67;19.92;;;;;;;11.55;74.52;97238.44;5088750;28;20020;-73
2023/04/14 08:59:40;;;;;;;33.03;20.70;;;;;;;11.54;74.51;97245.06;5085255;28;20024;-73
2023/04/14 09:02:06;;;;;;;30.88;19.52;;;;;;;11.50;74.05;97239.44;5089288;28;20533;-73
2023/04/14 09:04:34;;;;;;;31.70;19.17;;;;;;;11.50;74.30;97242.19;5090001;28;20031;-76
2023/04/14 09:07:01;;;;;;;32.78;19.60;;;;;;;11.52;74.46;97237.16;5091243;28;20024;-75
2023/04/14 09:09:27;;;;;;;34.42;20.63;;;;;;;11.59;74.00;97240.19;5090353;28;20369;-74
2023/04/14 09:11:53;;;;;;;33.65;21.55;;;;;;;11.60;73.83;97225.31;5090698;28;20039;-76
2023/04/14 09:14:20;;;;;;;46.42;28.33;;;;;;;11.59;74.15;97231.13;5090711;28;20035;-77
2023/04/14 09:16:47;;;;;;;40.55;25.55;;;;;;;11.60;74.42;97225.31;5091174;28;20035;-76
2023/04/14 09:19:14;;;;;;;43.60;25.50;;;;;;;11.60;74.07;97225.31;5090153;28;20047;-77
2023/04/14 09:21:40;;;;;;;32.13;21.50;;;;;;;11.59;73.49;97217.41;5089900;28;20024;-76
2023/04/14 09:24:06;;;;;;;46.78;26.13;;;;;;;11.62;73.79;97217.53;5089558;28;20024;-77
2023/04/14 09:26:32;;;;;;;109.85;56.55;;;;;;;11.67;73.75;97204.75;5089573;28;20506;-76
2023/04/14 09:28:58;;;;;;;49.75;30.30;;;;;;;11.69;73.63;97197.78;5089651;28;20036;-77
2023/04/14 09:31:24;;;;;;;40.78;25.58;;;;;;;11.67;73.69;97191.00;5089433;28;20043;-76
2023/04/14 09:33:50;;;;;;;32.20;20.67;;;;;;;11.64;73.39;97187.00;5089683;28;20087;-76
2023/04/14 09:36:24;;;;;;;35.15;23.30;;;;;;;11.62;73.91;97190.06;5090827;28;20032;-75
2023/04/14 09:38:51;;;;;;;40.17;25.00;;;;;;;11.68;73.86;97193.44;5090836;28;20441;-74
2023/04/14 09:41:18;;;;;;;51.10;32.15;;;;;;;11.76;74.43;97184.34;5090721;28;20047;-74
2023/04/14 09:43:44;;;;;;;41.10;26.08;;;;;;;11.86;74.05;97183.13;5080905;28;20105;-74
2023/04/14 09:46:10;;;;;;;30.25;19.35;;;;;;;11.97;74.64;97177.22;5068859;28;20028;-74
2023/04/14 09:48:55;;;;;;;28.65;18.10;;;;;;;12.04;74.12;97161.00;5070563;28;20024;-74
2023/04/14 09:51:22;;;;;;;17.70;12.35;;;;;;;12.15;73.71;97172.38;5063293;28;20043;-74
2023/04/14 09:53:48;;;;;;;18.50;12.80;;;;;;;12.23;73.71;97159.69;5058089;28;20029;-75
2023/04/14 09:56:13;;;;;;;25.13;15.43;;;;;;;12.35;73.88;97159.72;5050873;28;20025;-75
2023/04/14 09:58:41;;;;;;;32.15;18.08;;;;;;;12.51;73.89;97154.38;5050574;28;20027;-75
2023/04/14 10:01:20;;;;;;;34.35;18.85;;;;;;;12.73;74.07;97144.06;5049192;28;20027;-75
2023/04/14 10:03:46;;;;;;;28.33;16.05;;;;;;;12.97;74.28;97140.53;5050079;28;20021;-77
2023/04/14 10:06:12;;;;;;;37.55;17.77;;;;;;;13.22;74.38;97135.81;5050551;28;20029;-76
2023/04/14 10:08:40;;;;;;;36.45;22.20;;;;;;;13.48;74.03;97129.13;5050433;28;20032;-77
2023/04/14 10:11:35;;;;;;;20.00;12.80;;;;;;;13.70;73.12;97125.03;5050347;28;20032;-77
2023/04/14 10:14:05;;;;;;;35.88;18.15;;;;;;;13.92;73.56;97122.91;5039015;28;20037;-77
2023/04/14 10:16:31;;;;;;;37.50;18.92;;;;;;;14.14;73.25;97120.72;5067195;28;20041;-77
2023/04/14 10:18:57;;;;;;;34.83;18.00;;;;;;;14.35;72.91;97122.47;5070710;28;20115;-77
2023/04/14 10:21:23;;;;;;;31.45;15.95;;;;;;;14.55;73.19;97126.13;5070332;28;20112;-77
2023/04/14 10:23:50;;;;;;;32.42;17.25;;;;;;;14.70;72.44;97124.56;5070470;28;20029;-77
2023/04/14 10:26:17;;;;;;;25.73;15.10;;;;;;;14.79;71.95;97133.47;5054240;28;20033;-78
2023/04/14 10:28:45;;;;;;;35.67;18.10;;;;;;;14.86;71.96;97125.34;5050392;28;20108;-78
2023/04/14 10:31:16;;;;;;;22.08;13.43;;;;;;;14.86;70.92;97124.53;5050020;28;20029;-78
2023/04/14 10:33:41;;;;;;;20.92;12.90;;;;;;;14.84;70.68;97127.69;5050313;28;20107;-77
2023/04/14 10:36:08;;;;;;;25.52;12.95;;;;;;;14.85;70.37;97128.47;5050172;28;20108;-76
2023/04/14 10:38:42;;;;;;;27.10;13.95;;;;;;;14.86;70.29;97114.31;5050684;28;20036;-77
2023/04/14 10:41:08;;;;;;;58.25;25.65;;;;;;;14.95;70.19;97116.06;5048945;28;20029;-75
2023/04/14 10:43:35;;;;;;;36.90;16.20;;;;;;;15.02;69.16;97116.25;5067447;28;20049;-76
2023/04/14 10:46:02;;;;;;;35.85;18.45;;;;;;;15.11;69.97;97105.81;5052360;28;20029;-76
2023/04/14 10:48:33;;;;;;;24.13;14.32;;;;;;;15.22;69.80;97102.50;5050584;28;20474;-76
2023/04/14 10:51:00;;;;;;;64.57;31.35;;;;;;;15.23;69.13;97104.09;5050151;28;20040;-75
2023/04/14 10:53:26;;;;;;;42.10;20.88;;;;;;;15.17;67.93;97107.13;5050037;28;20119;-76
2023/04/14 10:55:54;;;;;;;30.20;16.95;;;;;;;15.16;68.12;97091.72;5050143;28;20100;-75
2023/04/14 10:58:22;;;;;;;57.38;24.00;;;;;;;15.25;68.83;97097.03;5049980;28;20025;-75
2023/04/14 11:00:47;;;;;;;34.25;17.33;;;;;;;15.38;68.92;97103.22;5050859;28;20356;-76
2023/04/14 11:03:16;;;;;;;53.25;26.67;;;;;;;15.51;69.13;97103.91;5066387;28;20039;-79
2023/04/14 11:05:51;;;;;;;67.55;33.22;;;;;;;15.57;68.31;97091.41;5067824;28;20017;-77
2023/04/14 11:08:32;;;;;;;36.42;17.17;;;;;;;15.62;68.37;97091.13;5073761;28;20441;-74
2023/04/14 11:11:03;;;;;;;28.33;14.95;;;;;;;15.69;68.18;97084.91;5073049;28;20056;-77
2023/04/14 11:13:29;;;;;;;22.73;12.02;;;;;;;15.75;67.15;97085.44;5073364;28;20116;-76
2023/04/14 11:16:02;;;;;;;15.60;10.10;;;;;;;15.80;67.09;97081.56;5055305;28;20029;-77
2023/04/14 11:18:28;;;;;;;23.80;11.48;;;;;;;15.83;67.27;97072.56;5073401;28;20055;-78
2023/04/14 11:20:59;;;;;;;47.30;16.65;;;;;;;15.89;66.70;97074.72;5072972;28;20457;-79
2023/04/14 11:23:27;;;;;;;20.60;10.65;;;;;;;15.93;66.98;97078.31;5059302;28;20044;-75